sensor_id;sensor_type;location;lat;lon;timestamp;pressure;altitude;pressure_sealevel;temperature;humidity
68193;BME280;55012;47.562;18.414;2023-02-12T00:02:08;99966.59;;;3.36;100.00
68193;BME280;55012;47.562;18.414;2023-02-12T00:04:34;99956.47;;;3.33;100.00
68193;BME280;55012;47.562;18.414;2023-02-12T00:07:00;99961.03;;;3.33;100.00
68193;BME280;55012;47.562;18.414;2023-02-12T00:09:25;99974.19;;;3.24;100.00
68193;BME280;55012;47.562;18.414;2023-02-12T00:11:51;99977.16;;;3.23;100.00
68193;BME280;55012;47.562;18.414;2023-02-12T00:14:16;99992.41;;;3.17;100.00
68193;BME280;55012;47.562;18.414;2023-02-12T00:16:42;100022.91;;;3.11;100.00
68193;BME280;55012;47.562;18.414;2023-02-12T00:19:08;100039.25;;;3.09;100.00
68193;BME280;55012;47.562;18.414;2023-02-12T00:21:33;100044.06;;;3.07;100.00
68193;BME280;55012;47.562;18.414;2023-02-12T00:24:00;100064.38;;;3.03;100.00
68193;BME280;55012;47.562;18.414;2023-02-12T00:26:25;100067.34;;;3.07;100.00
68193;BME280;55012;47.562;18.414;2023-02-12T00:28:52;100074.28;;;3.08;100.00
68193;BME280;55012;47.562;18.414;2023-02-12T00:31:23;100093.00;;;3.08;100.00
68193;BME280;55012;47.562;18.414;2023-02-12T00:33:49;100087.38;;;3.09;100.00
68193;BME280;55012;47.562;18.414;2023-02-12T00:36:18;100115.13;;;3.14;100.00
68193;BME280;55012;47.562;18.414;2023-02-12T00:38:44;100120.47;;;3.14;100.00
68193;BME280;55012;47.562;18.414;2023-02-12T00:41:10;100115.13;;;3.19;100.00
68193;BME280;55012;47.562;18.414;2023-02-12T00:43:36;100124.75;;;3.20;100.00
68193;BME280;55012;47.562;18.414;2023-02-12T00:46:02;100107.34;;;3.22;100.00
68193;BME280;55012;47.562;18.414;2023-02-12T00:48:29;100119.91;;;3.27;100.00
68193;BME280;55012;47.562;18.414;2023-02-12T00:50:55;100126.84;;;3.28;100.00
68193;BME280;55012;47.562;18.414;2023-02-12T00:53:20;100117.22;;;3.27;100.00
68193;BME280;55012;47.562;18.414;2023-02-12T00:55:46;100129.00;;;3.26;100.00
68193;BME280;55012;47.562;18.414;2023-02-12T00:58:11;100129.50;;;3.28;100.00
68193;BME280;55012;47.562;18.414;2023-02-12T01:00:37;100140.72;;;3.30;100.00
68193;BME280;55012;47.562;18.414;2023-02-12T01:03:03;100142.88;;;3.28;100.00
68193;BME280;55012;47.562;18.414;2023-02-12T01:05:30;100142.88;;;3.28;100.00
68193;BME280;55012;47.562;18.414;2023-02-12T01:07:55;100151.72;;;3.28;100.00
68193;BME280;55012;47.562;18.414;2023-02-12T01:10:21;100150.09;;;3.27;100.00
68193;BME280;55012;47.562;18.414;2023-02-12T01:12:47;100152.28;;;3.20;100.00
68193;BME280;55012;47.562;18.414;2023-02-12T01:15:13;100160.28;;;3.20;100.00
68193;BME280;55012;47.562;18.414;2023-02-12T01:17:39;100156.03;;;3.19;100.00
68193;BME280;55012;47.562;18.414;2023-02-12T01:20:06;100169.16;;;3.16;100.00
68193;BME280;55012;47.562;18.414;2023-02-12T01:22:36;100157.09;;;3.13;100.00
68193;BME280;55012;47.562;18.414;2023-02-12T01:25:03;100164.38;;;3.07;100.00
68193;BME280;55012;47.562;18.414;2023-02-12T01:27:28;100190.31;;;3.02;100.00
68193;BME280;55012;47.562;18.414;2023-02-12T01:29:54;100207.69;;;2.99;100.00
68193;BME280;55012;47.562;18.414;2023-02-12T01:32:20;100237.63;;;3.01;100.00
68193;BME280;55012;47.562;18.414;2023-02-12T01:34:45;100254.97;;;3.04;100.00
68193;BME280;55012;47.562;18.414;2023-02-12T01:37:10;100253.38;;;3.03;100.00
68193;BME280;55012;47.562;18.414;2023-02-12T01:39:36;100276.09;;;3.00;100.00
68193;BME280;55012;47.562;18.414;2023-02-12T01:42:03;100283.03;;;2.96;100.00
68193;BME280;55012;47.562;18.414;2023-02-12T01:44:29;100300.16;;;2.95;100.00
68193;BME280;55012;47.562;18.414;2023-02-12T01:47:04;100298.28;;;2.96;100.00
68193;BME280;55012;47.562;18.414;2023-02-12T01:49:39;100321.56;;;2.90;100.00
68193;BME280;55012;47.562;18.414;2023-02-12T01:52:27;100336.50;;;2.86;100.00
68193;BME280;55012;47.562;18.414;2023-02-12T01:54:57;100353.88;;;2.84;100.00
68193;BME280;55012;47.562;18.414;2023-02-12T01:57:26;100365.66;;;2.83;100.00
68193;BME280;55012;47.562;18.414;2023-02-12T01:59:53;100396.63;;;2.78;100.00
68193;BME280;55012;47.562;18.414;2023-02-12T02:02:20;100415.06;;;2.75;100.00
68193;BME280;55012;47.562;18.414;2023-02-12T02:04:49;100436.16;;;2.71;100.00
68193;BME280;55012;47.562;18.414;2023-02-12T02:07:16;100461.78;;;2.72;100.00
68193;BME280;55012;47.562;18.414;2023-02-12T02:09:42;100475.16;;;2.72;100.00
68193;BME280;55012;47.562;18.414;2023-02-12T02:12:07;100493.06;;;2.72;100.00
68193;BME280;55012;47.562;18.414;2023-02-12T02:14:55;100519.53;;;2.73;100.00
68193;BME280;55012;47.562;18.414;2023-02-12T02:17:30;100550.53;;;2.74;100.00
68193;BME280;55012;47.562;18.414;2023-02-12T02:20:20;100570.31;;;2.78;100.00
68193;BME280;55012;47.562;18.414;2023-02-12T02:23:33;100571.41;;;2.83;100.00
68193;BME280;55012;47.562;18.414;2023-02-12T02:31:41;100576.19;;;2.80;100.00
68193;BME280;55012;47.562;18.414;2023-02-12T02:34:33;100594.59;;;2.72;100.00
68193;BME280;55012;47.562;18.414;2023-02-12T02:42:16;100685.91;;;2.59;100.00
68193;BME280;55012;47.562;18.414;2023-02-12T02:44:53;100745.13;;;2.50;100.00
68193;BME280;55012;47.562;18.414;2023-02-12T02:47:26;100805.44;;;2.46;100.00
68193;BME280;55012;47.562;18.414;2023-02-12T02:50:10;100843.63;;;2.47;100.00
68193;BME280;55012;47.562;18.414;2023-02-12T02:52:53;100887.44;;;2.46;100.00
68193;BME280;55012;47.562;18.414;2023-02-12T02:55:24;100903.47;;;2.46;100.00
68193;BME280;55012;47.562;18.414;2023-02-12T02:58:00;100931.56;;;2.48;100.00
68193;BME280;55012;47.562;18.414;2023-02-12T03:00:34;100941.66;;;2.46;100.00
68193;BME280;55012;47.562;18.414;2023-02-12T03:03:02;100960.00;;;2.38;100.00
68193;BME280;55012;47.562;18.414;2023-02-12T03:05:36;100999.13;;;2.27;100.00
68193;BME280;55012;47.562;18.414;2023-02-12T03:08:23;101013.78;;;2.24;100.00
68193;BME280;55012;47.562;18.414;2023-02-12T03:10:57;101051.88;;;2.20;100.00
68193;BME280;55012;47.562;18.414;2023-02-12T03:13:37;101067.59;;;2.16;100.00
68193;BME280;55012;47.562;18.414;2023-02-12T03:16:15;101092.34;;;2.12;100.00
68193;BME280;55012;47.562;18.414;2023-02-12T03:18:53;101123.56;;;2.11;100.00
68193;BME280;55012;47.562;18.414;2023-02-12T03:21:26;101136.34;;;2.09;100.00
68193;BME280;55012;47.562;18.414;2023-02-12T03:24:13;101164.91;;;2.09;100.00
68193;BME280;55012;47.562;18.414;2023-02-12T03:26:48;101175.59;;;2.09;100.00
68193;BME280;55012;47.562;18.414;2023-02-12T03:29:15;101181.88;;;2.03;100.00
68193;BME280;55012;47.562;18.414;2023-02-12T03:31:45;101202.06;;;1.98;100.00
68193;BME280;55012;47.562;18.414;2023-02-12T03:34:25;101203.50;;;1.89;100.00
68193;BME280;55012;47.562;18.414;2023-02-12T03:50:14;101298.06;;;1.53;100.00
68193;BME280;55012;47.562;18.414;2023-02-12T03:52:42;101300.03;;;1.46;100.00
68193;BME280;55012;47.562;18.414;2023-02-12T03:55:08;101335.19;;;1.43;100.00
68193;BME280;55012;47.562;18.414;2023-02-12T03:58:04;101339.34;;;1.39;100.00
68193;BME280;55012;47.562;18.414;2023-02-12T04:00:32;101369.63;;;1.33;100.00
68193;BME280;55012;47.562;18.414;2023-02-12T04:02:58;101390.09;;;1.32;100.00
68193;BME280;55012;47.562;18.414;2023-02-12T04:05:26;101387.25;;;1.34;100.00
68193;BME280;55012;47.562;18.414;2023-02-12T04:07:53;101410.41;;;1.33;100.00
68193;BME280;55012;47.562;18.414;2023-02-12T04:10:30;101432.31;;;1.35;100.00
68193;BME280;55012;47.562;18.414;2023-02-12T04:13:11;101458.75;;;1.37;100.00
68193;BME280;55012;47.562;18.414;2023-02-12T04:15:55;101471.53;;;1.35;100.00
68193;BME280;55012;47.562;18.414;2023-02-12T04:18:42;101461.66;;;1.35;100.00
68193;BME280;55012;47.562;18.414;2023-02-12T04:24:35;101469.91;;;1.34;100.00
68193;BME280;55012;47.562;18.414;2023-02-12T04:27:23;101491.09;;;1.29;100.00
68193;BME280;55012;47.562;18.414;2023-02-12T04:30:12;101498.84;;;1.30;100.00
68193;BME280;55012;47.562;18.414;2023-02-12T04:32:50;101499.91;;;1.29;100.00
68193;BME280;55012;47.562;18.414;2023-02-12T04:35:50;101520.19;;;1.30;100.00
68193;BME280;55012;47.562;18.414;2023-02-12T04:38:28;101513.00;;;1.31;100.00
68193;BME280;55012;47.562;18.414;2023-02-12T04:40:57;101511.59;;;1.28;100.00
68193;BME280;55012;47.562;18.414;2023-02-12T04:43:28;101507.31;;;1.27;100.00
68193;BME280;55012;47.562;18.414;2023-02-12T04:45:53;101507.63;;;1.19;100.00
68193;BME280;55012;47.562;18.414;2023-02-12T04:48:19;101501.94;;;1.16;100.00
68193;BME280;55012;47.562;18.414;2023-02-12T04:50:44;101493.25;;;1.08;100.00
68193;BME280;55012;47.562;18.414;2023-02-12T04:53:11;101474.44;;;1.03;100.00
68193;BME280;55012;47.562;18.414;2023-02-12T04:55:36;101459.72;;;1.01;100.00
68193;BME280;55012;47.562;18.414;2023-02-12T04:58:02;101466.75;;;0.95;100.00
68193;BME280;55012;47.562;18.414;2023-02-12T05:00:28;101461.44;;;0.95;100.00
68193;BME280;55012;47.562;18.414;2023-02-12T05:02:53;101454.94;;;0.91;100.00
68193;BME280;55012;47.562;18.414;2023-02-12T05:05:19;101442.19;;;0.93;100.00
68193;BME280;55012;47.562;18.414;2023-02-12T05:07:45;101420.88;;;0.93;100.00
68193;BME280;55012;47.562;18.414;2023-02-12T05:10:10;101395.84;;;0.94;100.00
68193;BME280;55012;47.562;18.414;2023-02-12T05:12:36;101360.66;;;1.04;100.00
68193;BME280;55012;47.562;18.414;2023-02-12T05:15:01;101337.69;;;1.15;100.00
68193;BME280;55012;47.562;18.414;2023-02-12T05:17:26;101293.53;;;1.30;100.00
68193;BME280;55012;47.562;18.414;2023-02-12T05:19:52;101272.53;;;1.46;100.00
68193;BME280;55012;47.562;18.414;2023-02-12T05:22:17;101256.88;;;1.61;100.00
68193;BME280;55012;47.562;18.414;2023-02-12T05:24:43;101253.59;;;1.71;100.00
68193;BME280;55012;47.562;18.414;2023-02-12T05:27:08;101261.78;;;1.81;100.00
68193;BME280;55012;47.562;18.414;2023-02-12T05:29:35;101264.69;;;1.91;100.00
68193;BME280;55012;47.562;18.414;2023-02-12T05:32:01;101269.41;;;2.01;100.00
68193;BME280;55012;47.562;18.414;2023-02-12T05:34:26;101273.06;;;2.11;100.00
68193;BME280;55012;47.562;18.414;2023-02-12T05:36:52;101270.72;;;2.15;100.00
68193;BME280;55012;47.562;18.414;2023-02-12T05:39:17;101282.25;;;2.15;100.00
68193;BME280;55012;47.562;18.414;2023-02-12T05:41:43;101289.75;;;2.18;100.00
68193;BME280;55012;47.562;18.414;2023-02-12T05:44:08;101296.00;;;2.24;100.00
68193;BME280;55012;47.562;18.414;2023-02-12T05:46:36;101300.38;;;2.30;100.00
68193;BME280;55012;47.562;18.414;2023-02-12T05:49:02;101313.28;;;2.33;100.00
68193;BME280;55012;47.562;18.414;2023-02-12T05:51:28;101315.13;;;2.33;100.00
68193;BME280;55012;47.562;18.414;2023-02-12T05:53:58;101313.41;;;2.27;100.00
68193;BME280;55012;47.562;18.414;2023-02-12T05:56:35;101310.97;;;2.25;100.00
68193;BME280;55012;47.562;18.414;2023-02-12T05:59:04;101321.19;;;2.28;100.00
68193;BME280;55012;47.562;18.414;2023-02-12T06:01:33;101325.47;;;2.29;100.00
68193;BME280;55012;47.562;18.414;2023-02-12T06:04:00;101328.25;;;2.34;100.00
68193;BME280;55012;47.562;18.414;2023-02-12T06:06:27;101335.53;;;2.39;100.00
68193;BME280;55012;47.562;18.414;2023-02-12T06:08:53;101326.94;;;2.37;100.00
68193;BME280;55012;47.562;18.414;2023-02-12T06:11:19;101343.34;;;2.29;100.00
68193;BME280;55012;47.562;18.414;2023-02-12T06:13:45;101347.41;;;2.31;100.00
68193;BME280;55012;47.562;18.414;2023-02-12T06:16:37;101351.47;;;2.34;100.00
68193;BME280;55012;47.562;18.414;2023-02-12T06:19:04;101355.50;;;2.36;100.00
68193;BME280;55012;47.562;18.414;2023-02-12T06:21:30;101352.41;;;2.28;100.00
68193;BME280;55012;47.562;18.414;2023-02-12T06:23:56;101367.75;;;2.20;100.00
68193;BME280;55012;47.562;18.414;2023-02-12T06:26:22;101361.28;;;2.16;100.00
68193;BME280;55012;47.562;18.414;2023-02-12T06:28:48;101370.09;;;2.17;100.00
68193;BME280;55012;47.562;18.414;2023-02-12T06:31:34;101371.47;;;2.19;100.00
68193;BME280;55012;47.562;18.414;2023-02-12T06:34:04;101380.66;;;2.23;100.00
68193;BME280;55012;47.562;18.414;2023-02-12T06:36:30;101359.84;;;2.25;100.00
68193;BME280;55012;47.562;18.414;2023-02-12T06:38:55;101379.13;;;2.28;100.00
68193;BME280;55012;47.562;18.414;2023-02-12T06:41:22;101385.28;;;2.28;100.00
68193;BME280;55012;47.562;18.414;2023-02-12T06:43:48;101385.84;;;2.30;100.00
68193;BME280;55012;47.562;18.414;2023-02-12T06:46:13;101401.97;;;2.35;100.00
68193;BME280;55012;47.562;18.414;2023-02-12T06:48:39;101385.22;;;2.40;100.00
68193;BME280;55012;47.562;18.414;2023-02-12T06:53:35;101396.16;;;2.67;100.00
68193;BME280;55012;47.562;18.414;2023-02-12T06:56:03;101395.53;;;2.76;100.00
68193;BME280;55012;47.562;18.414;2023-02-12T06:58:29;101397.69;;;2.91;100.00
68193;BME280;55012;47.562;18.414;2023-02-12T07:00:54;101397.75;;;2.96;100.00
68193;BME280;55012;47.562;18.414;2023-02-12T07:03:20;101388.47;;;2.99;100.00
68193;BME280;55012;47.562;18.414;2023-02-12T07:05:45;101403.19;;;3.01;100.00
68193;BME280;55012;47.562;18.414;2023-02-12T07:08:13;101385.94;;;2.92;100.00
68193;BME280;55012;47.562;18.414;2023-02-12T07:10:38;101390.88;;;2.84;100.00
68193;BME280;55012;47.562;18.414;2023-02-12T07:13:04;101386.59;;;2.71;100.00
68193;BME280;55012;47.562;18.414;2023-02-12T07:15:30;101406.69;;;2.57;100.00
68193;BME280;55012;47.562;18.414;2023-02-12T07:17:55;101431.91;;;2.49;100.00
68193;BME280;55012;47.562;18.414;2023-02-12T07:20:20;101419.72;;;2.41;100.00
68193;BME280;55012;47.562;18.414;2023-02-12T07:22:46;101419.13;;;2.39;100.00
68193;BME280;55012;47.562;18.414;2023-02-12T07:25:11;101414.03;;;2.38;100.00
68193;BME280;55012;47.562;18.414;2023-02-12T07:27:37;101424.97;;;2.36;100.00
68193;BME280;55012;47.562;18.414;2023-02-12T07:30:04;101413.94;;;2.33;100.00
68193;BME280;55012;47.562;18.414;2023-02-12T07:32:33;101419.75;;;2.30;100.00
68193;BME280;55012;47.562;18.414;2023-02-12T07:34:59;101432.78;;;2.26;100.00
68193;BME280;55012;47.562;18.414;2023-02-12T07:37:24;101422.66;;;2.28;100.00
68193;BME280;55012;47.562;18.414;2023-02-12T07:39:50;101432.03;;;2.31;100.00
68193;BME280;55012;47.562;18.414;2023-02-12T07:42:16;101437.75;;;2.34;100.00
68193;BME280;55012;47.562;18.414;2023-02-12T07:44:42;101448.31;;;2.41;100.00
68193;BME280;55012;47.562;18.414;2023-02-12T07:47:07;101463.59;;;2.45;100.00
68193;BME280;55012;47.562;18.414;2023-02-12T07:49:33;101436.75;;;2.52;100.00
68193;BME280;55012;47.562;18.414;2023-02-12T07:51:58;101440.56;;;2.56;100.00
68193;BME280;55012;47.562;18.414;2023-02-12T07:54:24;101448.44;;;2.63;100.00
68193;BME280;55012;47.562;18.414;2023-02-12T07:56:49;101439.97;;;2.66;100.00
68193;BME280;55012;47.562;18.414;2023-02-12T07:59:17;101468.75;;;2.75;100.00
68193;BME280;55012;47.562;18.414;2023-02-12T08:01:50;101449.56;;;2.78;100.00
68193;BME280;55012;47.562;18.414;2023-02-12T08:04:19;101462.78;;;2.85;100.00
68193;BME280;55012;47.562;18.414;2023-02-12T08:06:47;101458.56;;;2.89;100.00
68193;BME280;55012;47.562;18.414;2023-02-12T08:09:16;101448.78;;;2.95;100.00
68193;BME280;55012;47.562;18.414;2023-02-12T08:11:43;101465.19;;;2.98;100.00
68193;BME280;55012;47.562;18.414;2023-02-12T08:14:14;101460.97;;;3.02;100.00
68193;BME280;55012;47.562;18.414;2023-02-12T08:16:41;101500.38;;;3.07;100.00
68193;BME280;55012;47.562;18.414;2023-02-12T08:19:07;101462.75;;;3.14;100.00
68193;BME280;55012;47.562;18.414;2023-02-12T08:21:32;101451.91;;;3.20;100.00
68193;BME280;55012;47.562;18.414;2023-02-12T08:23:58;101460.59;;;3.27;100.00
68193;BME280;55012;47.562;18.414;2023-02-12T08:26:27;101479.97;;;3.34;100.00
68193;BME280;55012;47.562;18.414;2023-02-12T08:31:29;101451.78;;;3.44;100.00
68193;BME280;55012;47.562;18.414;2023-02-12T08:33:55;101452.44;;;3.51;100.00
68193;BME280;55012;47.562;18.414;2023-02-12T08:36:26;101468.88;;;3.59;100.00
68193;BME280;55012;47.562;18.414;2023-02-12T08:38:52;101489.81;;;3.62;100.00
68193;BME280;55012;47.562;18.414;2023-02-12T08:41:20;101479.50;;;3.71;100.00
68193;BME280;55012;47.562;18.414;2023-02-12T08:43:47;101463.53;;;3.76;100.00
68193;BME280;55012;47.562;18.414;2023-02-12T08:46:22;101473.03;;;3.84;100.00
68193;BME280;55012;47.562;18.414;2023-02-12T08:48:47;101498.56;;;3.91;100.00
68193;BME280;55012;47.562;18.414;2023-02-12T08:51:18;101496.03;;;4.02;100.00
68193;BME280;55012;47.562;18.414;2023-02-12T08:53:46;101495.31;;;4.06;100.00
68193;BME280;55012;47.562;18.414;2023-02-12T08:56:15;101509.31;;;4.13;100.00
68193;BME280;55012;47.562;18.414;2023-02-12T08:58:41;101497.38;;;4.21;100.00
68193;BME280;55012;47.562;18.414;2023-02-12T09:01:15;101494.78;;;4.26;100.00
68193;BME280;55012;47.562;18.414;2023-02-12T09:03:42;101511.25;;;4.35;100.00
68193;BME280;55012;47.562;18.414;2023-02-12T09:06:08;101501.97;;;4.42;100.00
68193;BME280;55012;47.562;18.414;2023-02-12T09:08:34;101531.56;;;4.53;100.00
68193;BME280;55012;47.562;18.414;2023-02-12T09:11:04;101516.13;;;4.60;100.00
68193;BME280;55012;47.562;18.414;2023-02-12T09:13:30;101535.00;;;4.70;100.00
68193;BME280;55012;47.562;18.414;2023-02-12T09:15:55;101541.50;;;4.74;100.00
68193;BME280;55012;47.562;18.414;2023-02-12T09:18:21;101554.47;;;4.82;100.00
68193;BME280;55012;47.562;18.414;2023-02-12T09:20:46;101550.81;;;4.88;100.00
68193;BME280;55012;47.562;18.414;2023-02-12T09:23:13;101554.34;;;4.94;100.00
68193;BME280;55012;47.562;18.414;2023-02-12T09:25:42;101572.19;;;5.05;100.00
68193;BME280;55012;47.562;18.414;2023-02-12T09:28:08;101564.00;;;5.17;100.00
68193;BME280;55012;47.562;18.414;2023-02-12T09:30:36;101577.22;;;5.23;100.00
68193;BME280;55012;47.562;18.414;2023-02-12T09:33:02;101581.81;;;5.28;100.00
68193;BME280;55012;47.562;18.414;2023-02-12T09:35:28;101585.13;;;5.35;100.00
68193;BME280;55012;47.562;18.414;2023-02-12T09:37:53;101588.69;;;5.41;100.00
68193;BME280;55012;47.562;18.414;2023-02-12T09:40:34;101621.25;;;5.49;100.00
68193;BME280;55012;47.562;18.414;2023-02-12T09:45:56;101599.97;;;5.70;100.00
68193;BME280;55012;47.562;18.414;2023-02-12T09:51:04;101597.09;;;5.76;100.00
68193;BME280;55012;47.562;18.414;2023-02-12T09:53:36;101603.06;;;5.83;100.00
68193;BME280;55012;47.562;18.414;2023-02-12T09:56:08;101619.72;;;5.85;100.00
68193;BME280;55012;47.562;18.414;2023-02-12T09:58:44;101600.75;;;5.92;100.00
68193;BME280;55012;47.562;18.414;2023-02-12T10:01:18;101627.41;;;5.99;100.00
68193;BME280;55012;47.562;18.414;2023-02-12T10:03:46;101604.31;;;6.03;100.00
68193;BME280;55012;47.562;18.414;2023-02-12T10:06:20;101595.50;;;6.07;100.00
68193;BME280;55012;47.562;18.414;2023-02-12T10:11:50;101565.47;;;6.20;100.00
68193;BME280;55012;47.562;18.414;2023-02-12T10:14:45;101588.66;;;6.27;100.00
68193;BME280;55012;47.562;18.414;2023-02-12T10:17:18;101584.94;;;6.33;100.00
68193;BME280;55012;47.562;18.414;2023-02-12T10:20:11;101604.84;;;6.37;100.00
68193;BME280;55012;47.562;18.414;2023-02-12T10:28:24;101589.56;;;6.42;100.00
68193;BME280;55012;47.562;18.414;2023-02-12T10:31:06;101563.50;;;6.43;100.00
68193;BME280;55012;47.562;18.414;2023-02-12T10:33:40;101558.97;;;6.48;100.00
68193;BME280;55012;47.562;18.414;2023-02-12T10:36:36;101575.94;;;6.59;100.00
68193;BME280;55012;47.562;18.414;2023-02-12T10:39:25;101552.59;;;6.65;100.00
68193;BME280;55012;47.562;18.414;2023-02-12T10:41:57;101555.00;;;6.66;100.00
68193;BME280;55012;47.562;18.414;2023-02-12T10:44:26;101529.78;;;6.78;100.00
68193;BME280;55012;47.562;18.414;2023-02-12T10:46:52;101547.03;;;6.87;100.00
68193;BME280;55012;47.562;18.414;2023-02-12T10:49:19;101529.28;;;6.91;100.00
68193;BME280;55012;47.562;18.414;2023-02-12T10:54:37;101525.75;;;6.85;100.00
68193;BME280;55012;47.562;18.414;2023-02-12T10:57:22;101519.31;;;6.86;100.00
68193;BME280;55012;47.562;18.414;2023-02-12T10:59:50;101523.06;;;6.85;100.00
68193;BME280;55012;47.562;18.414;2023-02-12T11:02:27;101528.22;;;6.92;100.00
68193;BME280;55012;47.562;18.414;2023-02-12T11:04:54;101491.34;;;6.92;100.00
68193;BME280;55012;47.562;18.414;2023-02-12T11:07:20;101496.50;;;7.04;100.00
68193;BME280;55012;47.562;18.414;2023-02-12T11:09:48;101486.28;;;7.16;100.00
68193;BME280;55012;47.562;18.414;2023-02-12T11:14:50;101453.19;;;7.26;100.00
68193;BME280;55012;47.562;18.414;2023-02-12T11:17:26;101476.66;;;7.46;100.00
68193;BME280;55012;47.562;18.414;2023-02-12T11:20:23;101494.66;;;7.60;100.00
68193;BME280;55012;47.562;18.414;2023-02-12T11:23:02;101435.41;;;7.60;100.00
68193;BME280;55012;47.562;18.414;2023-02-12T11:25:30;101407.44;;;7.62;100.00
68193;BME280;55012;47.562;18.414;2023-02-12T11:28:17;101363.25;;;7.63;100.00
68193;BME280;55012;47.562;18.414;2023-02-12T11:31:19;101275.94;;;7.69;100.00
68193;BME280;55012;47.562;18.414;2023-02-12T11:33:46;101252.19;;;7.76;100.00
68193;BME280;55012;47.562;18.414;2023-02-12T11:36:32;101223.69;;;7.70;100.00
68193;BME280;55012;47.562;18.414;2023-02-12T11:38:59;101172.56;;;7.54;100.00
68193;BME280;55012;47.562;18.414;2023-02-12T11:41:35;101166.34;;;7.59;100.00
68193;BME280;55012;47.562;18.414;2023-02-12T11:44:15;101136.19;;;7.62;100.00
68193;BME280;55012;47.562;18.414;2023-02-12T11:47:02;101096.53;;;7.68;100.00
68193;BME280;55012;47.562;18.414;2023-02-12T11:52:22;100966.94;;;7.69;100.00
68193;BME280;55012;47.562;18.414;2023-02-12T11:54:48;100845.28;;;7.62;100.00
68193;BME280;55012;47.562;18.414;2023-02-12T12:00:02;100766.25;;;7.72;100.00
68193;BME280;55012;47.562;18.414;2023-02-12T12:02:33;100762.44;;;7.78;100.00
68193;BME280;55012;47.562;18.414;2023-02-12T12:05:18;100721.13;;;7.82;100.00
68193;BME280;55012;47.562;18.414;2023-02-12T12:07:50;100666.28;;;7.92;100.00
68193;BME280;55012;47.562;18.414;2023-02-12T12:10:54;100543.69;;;7.95;100.00
68193;BME280;55012;47.562;18.414;2023-02-12T12:13:26;100608.41;;;7.89;100.00
68193;BME280;55012;47.562;18.414;2023-02-12T12:16:03;100569.97;;;7.84;100.00
68193;BME280;55012;47.562;18.414;2023-02-12T12:19:04;100525.38;;;7.92;100.00
68193;BME280;55012;47.562;18.414;2023-02-12T12:22:02;100512.88;;;8.14;100.00
68193;BME280;55012;47.562;18.414;2023-02-12T12:24:37;100507.03;;;8.40;100.00
68193;BME280;55012;47.562;18.414;2023-02-12T12:32:58;100468.84;;;8.33;100.00
68193;BME280;55012;47.562;18.414;2023-02-12T12:35:35;100466.47;;;8.31;100.00
68193;BME280;55012;47.562;18.414;2023-02-12T12:38:21;100428.03;;;8.39;100.00
68193;BME280;55012;47.562;18.414;2023-02-12T12:41:02;100423.06;;;8.47;100.00
68193;BME280;55012;47.562;18.414;2023-02-12T12:50:13;100397.88;;;7.96;100.00
68193;BME280;55012;47.562;18.414;2023-02-12T12:52:34;100396.16;;;7.73;100.00
68193;BME280;55012;47.562;18.414;2023-02-12T12:55:42;100406.53;;;7.79;100.00
68193;BME280;55012;47.562;18.414;2023-02-12T13:06:21;100383.41;;;7.78;100.00
68193;BME280;55012;47.562;18.414;2023-02-12T13:11:42;100369.72;;;7.88;100.00
68193;BME280;55012;47.562;18.414;2023-02-12T13:17:28;100370.13;;;8.23;100.00
68193;BME280;55012;47.562;18.414;2023-02-12T13:20:04;100385.28;;;8.47;100.00
68193;BME280;55012;47.562;18.414;2023-02-12T13:22:45;100388.56;;;8.57;100.00
68193;BME280;55012;47.562;18.414;2023-02-12T13:27:43;100422.13;;;8.51;100.00
68193;BME280;55012;47.562;18.414;2023-02-12T13:33:06;100441.19;;;8.13;100.00
68193;BME280;55012;47.562;18.414;2023-02-12T13:35:39;100447.47;;;7.95;100.00
68193;BME280;55012;47.562;18.414;2023-02-12T13:38:07;100440.88;;;7.87;100.00
68193;BME280;55012;47.562;18.414;2023-02-12T13:40:34;100427.19;;;7.84;100.00
68193;BME280;55012;47.562;18.414;2023-02-12T13:50:50;100430.59;;;7.89;100.00
68193;BME280;55012;47.562;18.414;2023-02-12T13:56:37;100446.00;;;8.03;100.00
68193;BME280;55012;47.562;18.414;2023-02-12T14:01:53;100459.28;;;8.13;100.00
68193;BME280;55012;47.562;18.414;2023-02-12T14:07:00;100493.59;;;8.07;100.00
68193;BME280;55012;47.562;18.414;2023-02-12T14:11:58;100496.78;;;7.96;100.00
68193;BME280;55012;47.562;18.414;2023-02-12T14:14:42;100485.56;;;7.88;100.00
68193;BME280;55012;47.562;18.414;2023-02-12T14:20:25;100520.53;;;7.75;100.00
68193;BME280;55012;47.562;18.414;2023-02-12T14:25:45;100541.78;;;7.76;100.00
68193;BME280;55012;47.562;18.414;2023-02-12T14:28:22;100541.59;;;7.73;100.00
68193;BME280;55012;47.562;18.414;2023-02-12T14:36:41;100553.44;;;7.91;100.00
68193;BME280;55012;47.562;18.414;2023-02-12T14:41:52;100564.81;;;7.87;100.00
68193;BME280;55012;47.562;18.414;2023-02-12T14:46:54;100561.31;;;7.68;100.00
68193;BME280;55012;47.562;18.414;2023-02-12T14:52:13;100543.06;;;7.65;100.00
68193;BME280;55012;47.562;18.414;2023-02-12T14:54:46;100538.84;;;7.59;100.00
68193;BME280;55012;47.562;18.414;2023-02-12T14:57:27;100537.53;;;7.56;100.00
68193;BME280;55012;47.562;18.414;2023-02-12T15:00:00;100517.09;;;7.55;100.00
68193;BME280;55012;47.562;18.414;2023-02-12T15:02:31;100582.44;;;7.61;100.00
68193;BME280;55012;47.562;18.414;2023-02-12T15:05:02;100596.06;;;7.70;100.00
68193;BME280;55012;47.562;18.414;2023-02-12T15:07:39;100566.84;;;7.77;100.00
68193;BME280;55012;47.562;18.414;2023-02-12T15:10:17;100556.78;;;7.82;100.00